sensor_id;sensor_type;location;lat;lon;timestamp;temperature;humidity
18575;DHT22;9417;16.484;102.872;2022-08-19T00:01:39;27.30;99.50
18575;DHT22;9417;16.484;102.872;2022-08-19T00:03:55;27.30;99.40
18575;DHT22;9417;16.484;102.872;2022-08-19T00:06:02;27.30;99.10
18575;DHT22;9417;16.484;102.872;2022-08-19T00:08:10;27.40;99.00
18575;DHT22;9417;16.484;102.872;2022-08-19T00:10:18;27.40;98.70
18575;DHT22;9417;16.484;102.872;2022-08-19T00:12:26;27.40;98.50
18575;DHT22;9417;16.484;102.872;2022-08-19T00:14:35;27.40;98.20
18575;DHT22;9417;16.484;102.872;2022-08-19T00:16:44;27.50;97.80
18575;DHT22;9417;16.484;102.872;2022-08-19T00:18:53;27.50;97.50
18575;DHT22;9417;16.484;102.872;2022-08-19T00:21:00;27.50;97.30
18575;DHT22;9417;16.484;102.872;2022-08-19T00:23:10;27.60;97.10
18575;DHT22;9417;16.484;102.872;2022-08-19T00:25:18;27.60;96.70
18575;DHT22;9417;16.484;102.872;2022-08-19T00:27:33;27.60;96.50
18575;DHT22;9417;16.484;102.872;2022-08-19T00:29:42;27.70;96.10
18575;DHT22;9417;16.484;102.872;2022-08-19T00:31:55;27.70;96.00
18575;DHT22;9417;16.484;102.872;2022-08-19T00:34:04;27.70;95.90
18575;DHT22;9417;16.484;102.872;2022-08-19T00:36:11;27.70;96.00
18575;DHT22;9417;16.484;102.872;2022-08-19T00:38:19;27.80;96.30
18575;DHT22;9417;16.484;102.872;2022-08-19T00:40:43;27.80;96.00
18575;DHT22;9417;16.484;102.872;2022-08-19T00:42:51;27.80;95.80
18575;DHT22;9417;16.484;102.872;2022-08-19T00:45:00;27.80;95.40
18575;DHT22;9417;16.484;102.872;2022-08-19T00:47:07;27.80;95.20
18575;DHT22;9417;16.484;102.872;2022-08-19T00:49:23;27.80;95.00
18575;DHT22;9417;16.484;102.872;2022-08-19T00:51:32;27.90;94.90
18575;DHT22;9417;16.484;102.872;2022-08-19T00:53:39;27.90;94.70
18575;DHT22;9417;16.484;102.872;2022-08-19T00:55:49;28.00;94.50
18575;DHT22;9417;16.484;102.872;2022-08-19T00:57:59;28.00;94.00
18575;DHT22;9417;16.484;102.872;2022-08-19T01:00:11;28.00;93.50
18575;DHT22;9417;16.484;102.872;2022-08-19T01:02:19;28.10;93.20
18575;DHT22;9417;16.484;102.872;2022-08-19T01:04:27;28.00;93.10
18575;DHT22;9417;16.484;102.872;2022-08-19T01:06:36;28.10;92.80
18575;DHT22;9417;16.484;102.872;2022-08-19T01:08:44;28.20;92.60
18575;DHT22;9417;16.484;102.872;2022-08-19T01:10:54;28.20;91.30
18575;DHT22;9417;16.484;102.872;2022-08-19T01:13:03;28.20;91.00
18575;DHT22;9417;16.484;102.872;2022-08-19T01:15:14;28.30;90.90
18575;DHT22;9417;16.484;102.872;2022-08-19T01:17:22;28.30;90.70
18575;DHT22;9417;16.484;102.872;2022-08-19T01:19:33;28.40;90.80
18575;DHT22;9417;16.484;102.872;2022-08-19T01:21:50;28.50;90.60
18575;DHT22;9417;16.484;102.872;2022-08-19T01:24:01;28.50;90.20
18575;DHT22;9417;16.484;102.872;2022-08-19T01:26:08;28.60;90.00
18575;DHT22;9417;16.484;102.872;2022-08-19T01:28:19;28.60;89.60
18575;DHT22;9417;16.484;102.872;2022-08-19T01:30:43;28.70;89.10
18575;DHT22;9417;16.484;102.872;2022-08-19T01:32:54;28.70;88.60
18575;DHT22;9417;16.484;102.872;2022-08-19T01:35:02;28.70;88.30
18575;DHT22;9417;16.484;102.872;2022-08-19T01:37:10;28.70;88.40
18575;DHT22;9417;16.484;102.872;2022-08-19T01:39:31;28.70;88.20
18575;DHT22;9417;16.484;102.872;2022-08-19T01:41:39;28.60;88.40
18575;DHT22;9417;16.484;102.872;2022-08-19T01:43:46;28.60;88.90
18575;DHT22;9417;16.484;102.872;2022-08-19T01:46:14;28.60;89.10
18575;DHT22;9417;16.484;102.872;2022-08-19T01:48:27;28.60;88.30
18575;DHT22;9417;16.484;102.872;2022-08-19T01:50:38;28.60;88.20
18575;DHT22;9417;16.484;102.872;2022-08-19T01:52:45;28.60;87.60
18575;DHT22;9417;16.484;102.872;2022-08-19T01:55:12;28.60;87.90
18575;DHT22;9417;16.484;102.872;2022-08-19T01:57:20;28.60;87.80
18575;DHT22;9417;16.484;102.872;2022-08-19T01:59:28;28.60;88.00
18575;DHT22;9417;16.484;102.872;2022-08-19T02:01:35;28.60;88.10
18575;DHT22;9417;16.484;102.872;2022-08-19T02:03:43;28.70;88.30
18575;DHT22;9417;16.484;102.872;2022-08-19T02:05:55;28.70;87.90
18575;DHT22;9417;16.484;102.872;2022-08-19T02:08:04;28.70;87.60
18575;DHT22;9417;16.484;102.872;2022-08-19T02:10:16;28.70;87.80
18575;DHT22;9417;16.484;102.872;2022-08-19T02:12:24;28.80;88.00
18575;DHT22;9417;16.484;102.872;2022-08-19T02:14:32;28.80;87.80
18575;DHT22;9417;16.484;102.872;2022-08-19T02:16:40;28.80;87.20
18575;DHT22;9417;16.484;102.872;2022-08-19T02:18:48;28.90;86.90
18575;DHT22;9417;16.484;102.872;2022-08-19T02:20:55;29.00;86.80
18575;DHT22;9417;16.484;102.872;2022-08-19T02:23:02;29.00;86.30
18575;DHT22;9417;16.484;102.872;2022-08-19T02:25:18;29.10;86.20
18575;DHT22;9417;16.484;102.872;2022-08-19T02:27:25;29.20;86.00
18575;DHT22;9417;16.484;102.872;2022-08-19T02:29:32;29.30;85.20
18575;DHT22;9417;16.484;102.872;2022-08-19T02:31:40;29.40;84.30
18575;DHT22;9417;16.484;102.872;2022-08-19T02:33:47;29.50;84.80
18575;DHT22;9417;16.484;102.872;2022-08-19T02:35:59;29.60;84.00
18575;DHT22;9417;16.484;102.872;2022-08-19T02:38:06;29.70;82.50
18575;DHT22;9417;16.484;102.872;2022-08-19T02:40:32;29.80;82.30
18575;DHT22;9417;16.484;102.872;2022-08-19T02:42:40;29.90;81.40
18575;DHT22;9417;16.484;102.872;2022-08-19T02:44:47;30.00;81.30
18575;DHT22;9417;16.484;102.872;2022-08-19T02:46:55;30.00;80.80
18575;DHT22;9417;16.484;102.872;2022-08-19T02:49:04;30.10;80.20
18575;DHT22;9417;16.484;102.872;2022-08-19T02:51:17;30.20;80.40
18575;DHT22;9417;16.484;102.872;2022-08-19T02:53:28;30.30;79.90
18575;DHT22;9417;16.484;102.872;2022-08-19T02:55:42;30.20;80.00
18575;DHT22;9417;16.484;102.872;2022-08-19T02:57:49;30.20;79.00
18575;DHT22;9417;16.484;102.872;2022-08-19T02:59:56;30.20;78.80
18575;DHT22;9417;16.484;102.872;2022-08-19T03:02:04;30.30;78.10
18575;DHT22;9417;16.484;102.872;2022-08-19T03:04:14;30.30;77.80
18575;DHT22;9417;16.484;102.872;2022-08-19T03:06:22;30.40;78.70
18575;DHT22;9417;16.484;102.872;2022-08-19T03:08:29;30.50;78.80
18575;DHT22;9417;16.484;102.872;2022-08-19T03:10:42;30.60;78.20
18575;DHT22;9417;16.484;102.872;2022-08-19T03:12:51;30.70;78.00
18575;DHT22;9417;16.484;102.872;2022-08-19T03:14:58;30.70;78.20
18575;DHT22;9417;16.484;102.872;2022-08-19T03:17:05;30.60;77.60
18575;DHT22;9417;16.484;102.872;2022-08-19T03:19:13;30.60;78.00
18575;DHT22;9417;16.484;102.872;2022-08-19T03:21:22;30.70;77.70
18575;DHT22;9417;16.484;102.872;2022-08-19T03:23:30;30.60;76.80
18575;DHT22;9417;16.484;102.872;2022-08-19T03:25:39;30.70;76.60
18575;DHT22;9417;16.484;102.872;2022-08-19T03:27:49;30.70;77.70
18575;DHT22;9417;16.484;102.872;2022-08-19T03:29:56;30.80;77.20
18575;DHT22;9417;16.484;102.872;2022-08-19T03:32:05;30.90;77.40
18575;DHT22;9417;16.484;102.872;2022-08-19T03:34:34;30.90;77.10
18575;DHT22;9417;16.484;102.872;2022-08-19T03:36:41;31.00;77.30
18575;DHT22;9417;16.484;102.872;2022-08-19T03:38:52;31.00;77.70
18575;DHT22;9417;16.484;102.872;2022-08-19T03:41:07;31.00;77.90
18575;DHT22;9417;16.484;102.872;2022-08-19T03:43:16;30.90;77.40
18575;DHT22;9417;16.484;102.872;2022-08-19T03:45:24;30.80;76.20
18575;DHT22;9417;16.484;102.872;2022-08-19T03:47:32;30.70;76.60
18575;DHT22;9417;16.484;102.872;2022-08-19T03:49:39;30.60;77.20
18575;DHT22;9417;16.484;102.872;2022-08-19T03:51:47;30.60;78.10
18575;DHT22;9417;16.484;102.872;2022-08-19T03:53:56;30.60;78.20
18575;DHT22;9417;16.484;102.872;2022-08-19T03:56:04;30.60;77.90
18575;DHT22;9417;16.484;102.872;2022-08-19T03:58:16;30.50;77.70
18575;DHT22;9417;16.484;102.872;2022-08-19T04:00:24;30.50;76.90
18575;DHT22;9417;16.484;102.872;2022-08-19T04:02:31;30.50;77.00
18575;DHT22;9417;16.484;102.872;2022-08-19T04:04:39;30.50;76.60
18575;DHT22;9417;16.484;102.872;2022-08-19T04:06:47;30.50;77.00
18575;DHT22;9417;16.484;102.872;2022-08-19T04:08:56;30.60;77.40
18575;DHT22;9417;16.484;102.872;2022-08-19T04:11:08;30.70;77.40
18575;DHT22;9417;16.484;102.872;2022-08-19T04:13:16;30.80;77.00
18575;DHT22;9417;16.484;102.872;2022-08-19T04:15:24;31.00;76.20
18575;DHT22;9417;16.484;102.872;2022-08-19T04:17:32;31.10;76.40
18575;DHT22;9417;16.484;102.872;2022-08-19T04:19:39;31.20;76.60
18575;DHT22;9417;16.484;102.872;2022-08-19T04:21:49;31.40;76.90
18575;DHT22;9417;16.484;102.872;2022-08-19T04:23:57;31.50;76.30
18575;DHT22;9417;16.484;102.872;2022-08-19T04:26:06;31.60;73.80
18575;DHT22;9417;16.484;102.872;2022-08-19T04:28:18;31.60;74.80
18575;DHT22;9417;16.484;102.872;2022-08-19T04:30:25;31.60;75.10
18575;DHT22;9417;16.484;102.872;2022-08-19T04:32:32;31.70;75.20
18575;DHT22;9417;16.484;102.872;2022-08-19T04:34:40;31.80;74.70
18575;DHT22;9417;16.484;102.872;2022-08-19T04:37:08;31.90;74.50
18575;DHT22;9417;16.484;102.872;2022-08-19T04:39:18;31.80;72.90
18575;DHT22;9417;16.484;102.872;2022-08-19T04:41:28;31.80;73.00
18575;DHT22;9417;16.484;102.872;2022-08-19T04:43:54;31.70;73.60
18575;DHT22;9417;16.484;102.872;2022-08-19T04:46:08;31.60;73.90
18575;DHT22;9417;16.484;102.872;2022-08-19T04:48:35;31.50;73.50
18575;DHT22;9417;16.484;102.872;2022-08-19T04:50:53;31.40;74.30
18575;DHT22;9417;16.484;102.872;2022-08-19T04:53:02;31.40;74.70
18575;DHT22;9417;16.484;102.872;2022-08-19T04:55:10;31.30;75.00
18575;DHT22;9417;16.484;102.872;2022-08-19T04:57:17;31.30;75.80
18575;DHT22;9417;16.484;102.872;2022-08-19T04:59:26;31.30;76.00
18575;DHT22;9417;16.484;102.872;2022-08-19T05:01:33;31.30;75.70
18575;DHT22;9417;16.484;102.872;2022-08-19T05:03:41;31.20;75.60
18575;DHT22;9417;16.484;102.872;2022-08-19T05:05:49;31.20;75.70
18575;DHT22;9417;16.484;102.872;2022-08-19T05:07:56;31.20;75.80
18575;DHT22;9417;16.484;102.872;2022-08-19T05:10:05;31.30;75.70
18575;DHT22;9417;16.484;102.872;2022-08-19T05:12:12;31.30;75.00
18575;DHT22;9417;16.484;102.872;2022-08-19T05:14:20;31.40;74.50
18575;DHT22;9417;16.484;102.872;2022-08-19T05:16:29;31.40;74.90
18575;DHT22;9417;16.484;102.872;2022-08-19T05:18:37;31.50;75.20
18575;DHT22;9417;16.484;102.872;2022-08-19T05:21:06;31.60;75.50
18575;DHT22;9417;16.484;102.872;2022-08-19T05:23:30;31.70;75.70
18575;DHT22;9417;16.484;102.872;2022-08-19T05:25:40;31.70;74.80
18575;DHT22;9417;16.484;102.872;2022-08-19T05:27:47;31.80;74.30
18575;DHT22;9417;16.484;102.872;2022-08-19T05:29:55;31.90;73.80
18575;DHT22;9417;16.484;102.872;2022-08-19T05:32:04;32.00;73.70
18575;DHT22;9417;16.484;102.872;2022-08-19T05:34:12;32.10;72.80
18575;DHT22;9417;16.484;102.872;2022-08-19T05:36:23;32.30;70.00
18575;DHT22;9417;16.484;102.872;2022-08-19T05:38:30;32.20;70.80
18575;DHT22;9417;16.484;102.872;2022-08-19T05:40:38;32.40;71.10
18575;DHT22;9417;16.484;102.872;2022-08-19T05:42:46;32.50;71.00
18575;DHT22;9417;16.484;102.872;2022-08-19T05:44:58;32.60;71.50
18575;DHT22;9417;16.484;102.872;2022-08-19T05:47:08;32.70;71.50
18575;DHT22;9417;16.484;102.872;2022-08-19T05:49:16;32.90;71.20
18575;DHT22;9417;16.484;102.872;2022-08-19T05:51:23;32.90;70.50
18575;DHT22;9417;16.484;102.872;2022-08-19T05:53:32;33.00;70.10
18575;DHT22;9417;16.484;102.872;2022-08-19T05:55:40;33.00;71.00
18575;DHT22;9417;16.484;102.872;2022-08-19T05:57:48;33.10;71.30
18575;DHT22;9417;16.484;102.872;2022-08-19T05:59:55;33.20;69.80
18575;DHT22;9417;16.484;102.872;2022-08-19T06:02:15;33.20;67.70
18575;DHT22;9417;16.484;102.872;2022-08-19T06:04:23;33.20;68.10
18575;DHT22;9417;16.484;102.872;2022-08-19T06:06:31;33.20;67.70
18575;DHT22;9417;16.484;102.872;2022-08-19T06:08:39;33.30;68.10
18575;DHT22;9417;16.484;102.872;2022-08-19T06:10:47;33.30;66.10
18575;DHT22;9417;16.484;102.872;2022-08-19T06:12:54;33.40;66.40
18575;DHT22;9417;16.484;102.872;2022-08-19T06:15:03;33.30;65.80
18575;DHT22;9417;16.484;102.872;2022-08-19T06:17:11;33.00;66.10
18575;DHT22;9417;16.484;102.872;2022-08-19T06:19:22;32.90;66.10
18575;DHT22;9417;16.484;102.872;2022-08-19T06:21:31;33.00;66.80
18575;DHT22;9417;16.484;102.872;2022-08-19T06:23:38;33.00;67.10
18575;DHT22;9417;16.484;102.872;2022-08-19T06:25:45;33.00;67.50
18575;DHT22;9417;16.484;102.872;2022-08-19T06:27:52;33.00;67.80
18575;DHT22;9417;16.484;102.872;2022-08-19T06:30:18;33.00;67.50
18575;DHT22;9417;16.484;102.872;2022-08-19T06:32:26;32.90;68.00
18575;DHT22;9417;16.484;102.872;2022-08-19T06:34:35;32.80;68.20
18575;DHT22;9417;16.484;102.872;2022-08-19T06:36:43;32.80;69.10
18575;DHT22;9417;16.484;102.872;2022-08-19T06:38:51;32.90;70.10
18575;DHT22;9417;16.484;102.872;2022-08-19T06:41:01;33.00;67.40
18575;DHT22;9417;16.484;102.872;2022-08-19T06:43:10;33.10;67.40
18575;DHT22;9417;16.484;102.872;2022-08-19T06:45:21;33.30;67.80
18575;DHT22;9417;16.484;102.872;2022-08-19T06:47:37;33.40;68.00
18575;DHT22;9417;16.484;102.872;2022-08-19T06:49:46;33.50;66.80
18575;DHT22;9417;16.484;102.872;2022-08-19T06:51:54;33.40;67.30
18575;DHT22;9417;16.484;102.872;2022-08-19T06:54:04;33.20;67.40
18575;DHT22;9417;16.484;102.872;2022-08-19T06:56:23;33.10;66.50
18575;DHT22;9417;16.484;102.872;2022-08-19T06:58:35;33.20;66.90
18575;DHT22;9417;16.484;102.872;2022-08-19T07:00:43;33.30;67.20
18575;DHT22;9417;16.484;102.872;2022-08-19T07:02:50;33.40;67.40
18575;DHT22;9417;16.484;102.872;2022-08-19T07:05:07;33.40;67.80
18575;DHT22;9417;16.484;102.872;2022-08-19T07:07:19;33.20;66.40
18575;DHT22;9417;16.484;102.872;2022-08-19T07:09:27;33.10;65.90
18575;DHT22;9417;16.484;102.872;2022-08-19T07:11:35;32.90;66.50
18575;DHT22;9417;16.484;102.872;2022-08-19T07:13:43;32.90;67.50
18575;DHT22;9417;16.484;102.872;2022-08-19T07:15:50;33.00;68.00
18575;DHT22;9417;16.484;102.872;2022-08-19T07:17:57;33.20;67.70
18575;DHT22;9417;16.484;102.872;2022-08-19T07:20:09;33.30;67.60
18575;DHT22;9417;16.484;102.872;2022-08-19T07:22:16;33.30;66.90
18575;DHT22;9417;16.484;102.872;2022-08-19T07:24:27;33.20;66.80
18575;DHT22;9417;16.484;102.872;2022-08-19T07:26:40;33.00;67.00
18575;DHT22;9417;16.484;102.872;2022-08-19T07:58:01;32.10;69.80
18575;DHT22;9417;16.484;102.872;2022-08-19T08:00:10;32.40;70.90
18575;DHT22;9417;16.484;102.872;2022-08-19T08:02:17;32.40;71.70
18575;DHT22;9417;16.484;102.872;2022-08-19T08:04:24;32.50;71.10
18575;DHT22;9417;16.484;102.872;2022-08-19T08:06:48;32.70;69.90
18575;DHT22;9417;16.484;102.872;2022-08-19T08:09:14;32.90;69.90
18575;DHT22;9417;16.484;102.872;2022-08-19T08:11:27;33.10;67.90
18575;DHT22;9417;16.484;102.872;2022-08-19T08:13:36;33.00;66.20
18575;DHT22;9417;16.484;102.872;2022-08-19T08:15:44;32.90;66.80
18575;DHT22;9417;16.484;102.872;2022-08-19T08:17:55;32.80;67.80
18575;DHT22;9417;16.484;102.872;2022-08-19T08:20:04;32.70;69.10
18575;DHT22;9417;16.484;102.872;2022-08-19T08:22:15;32.50;70.00
18575;DHT22;9417;16.484;102.872;2022-08-19T08:24:50;32.50;70.70
18575;DHT22;9417;16.484;102.872;2022-08-19T08:26:58;32.60;70.30
18575;DHT22;9417;16.484;102.872;2022-08-19T08:29:15;32.60;69.70
18575;DHT22;9417;16.484;102.872;2022-08-19T08:31:24;32.60;68.90
18575;DHT22;9417;16.484;102.872;2022-08-19T08:33:31;32.60;69.50
18575;DHT22;9417;16.484;102.872;2022-08-19T08:35:40;32.50;69.10
18575;DHT22;9417;16.484;102.872;2022-08-19T08:37:49;32.40;68.60
18575;DHT22;9417;16.484;102.872;2022-08-19T08:39:59;32.50;69.00
18575;DHT22;9417;16.484;102.872;2022-08-19T08:42:14;32.40;68.90
18575;DHT22;9417;16.484;102.872;2022-08-19T08:44:31;32.40;69.10
18575;DHT22;9417;16.484;102.872;2022-08-19T08:46:51;32.40;69.80
18575;DHT22;9417;16.484;102.872;2022-08-19T08:49:04;32.30;70.50
18575;DHT22;9417;16.484;102.872;2022-08-19T08:51:16;32.50;70.60
18575;DHT22;9417;16.484;102.872;2022-08-19T08:53:26;32.40;70.30
18575;DHT22;9417;16.484;102.872;2022-08-19T08:55:37;32.50;70.40
18575;DHT22;9417;16.484;102.872;2022-08-19T08:57:51;32.60;70.60
18575;DHT22;9417;16.484;102.872;2022-08-19T09:00:07;32.60;70.40
18575;DHT22;9417;16.484;102.872;2022-08-19T09:02:18;32.60;69.60
18575;DHT22;9417;16.484;102.872;2022-08-19T09:04:26;32.60;69.60
18575;DHT22;9417;16.484;102.872;2022-08-19T09:06:38;32.60;69.60
18575;DHT22;9417;16.484;102.872;2022-08-19T09:08:53;32.70;69.00
18575;DHT22;9417;16.484;102.872;2022-08-19T09:11:08;32.70;68.90
18575;DHT22;9417;16.484;102.872;2022-08-19T09:13:21;32.70;69.00
18575;DHT22;9417;16.484;102.872;2022-08-19T09:15:42;32.60;68.50
18575;DHT22;9417;16.484;102.872;2022-08-19T09:17:50;32.50;68.10
18575;DHT22;9417;16.484;102.872;2022-08-19T09:20:00;32.40;68.00
18575;DHT22;9417;16.484;102.872;2022-08-19T09:22:12;32.30;68.30
18575;DHT22;9417;16.484;102.872;2022-08-19T09:24:28;32.20;68.90
18575;DHT22;9417;16.484;102.872;2022-08-19T09:26:35;32.10;69.60
18575;DHT22;9417;16.484;102.872;2022-08-19T09:28:54;32.10;70.10
18575;DHT22;9417;16.484;102.872;2022-08-19T09:31:04;31.90;69.90
18575;DHT22;9417;16.484;102.872;2022-08-19T09:33:12;31.80;70.10
18575;DHT22;9417;16.484;102.872;2022-08-19T09:35:21;31.60;72.80
18575;DHT22;9417;16.484;102.872;2022-08-19T09:37:31;31.30;73.80
18575;DHT22;9417;16.484;102.872;2022-08-19T09:39:39;31.10;74.90
18575;DHT22;9417;16.484;102.872;2022-08-19T09:41:47;30.90;76.00
18575;DHT22;9417;16.484;102.872;2022-08-19T09:43:58;30.80;76.80
18575;DHT22;9417;16.484;102.872;2022-08-19T09:46:11;30.70;77.60
18575;DHT22;9417;16.484;102.872;2022-08-19T09:48:21;30.60;78.40
18575;DHT22;9417;16.484;102.872;2022-08-19T09:50:28;30.50;79.10
18575;DHT22;9417;16.484;102.872;2022-08-19T09:52:39;30.40;79.70
18575;DHT22;9417;16.484;102.872;2022-08-19T09:55:00;30.30;80.30
18575;DHT22;9417;16.484;102.872;2022-08-19T09:57:11;30.20;81.20
18575;DHT22;9417;16.484;102.872;2022-08-19T09:59:18;30.00;82.70
18575;DHT22;9417;16.484;102.872;2022-08-19T10:01:28;29.90;83.10
18575;DHT22;9417;16.484;102.872;2022-08-19T10:03:40;29.90;84.40
18575;DHT22;9417;16.484;102.872;2022-08-19T10:05:47;29.80;84.80
18575;DHT22;9417;16.484;102.872;2022-08-19T10:07:58;29.80;84.90
18575;DHT22;9417;16.484;102.872;2022-08-19T10:10:16;29.70;85.10
18575;DHT22;9417;16.484;102.872;2022-08-19T10:12:24;29.60;84.90
18575;DHT22;9417;16.484;102.872;2022-08-19T10:14:32;29.50;85.40
18575;DHT22;9417;16.484;102.872;2022-08-19T10:16:43;29.40;86.20
18575;DHT22;9417;16.484;102.872;2022-08-19T10:18:51;29.40;86.60
18575;DHT22;9417;16.484;102.872;2022-08-19T10:21:06;29.50;86.80
18575;DHT22;9417;16.484;102.872;2022-08-19T10:23:15;29.50;86.80
18575;DHT22;9417;16.484;102.872;2022-08-19T10:25:22;29.50;86.50
18575;DHT22;9417;16.484;102.872;2022-08-19T10:27:32;29.50;86.10
18575;DHT22;9417;16.484;102.872;2022-08-19T10:29:42;29.50;86.40
18575;DHT22;9417;16.484;102.872;2022-08-19T10:31:51;29.50;86.50
18575;DHT22;9417;16.484;102.872;2022-08-19T10:34:04;29.40;87.00
18575;DHT22;9417;16.484;102.872;2022-08-19T10:36:16;29.40;87.40
18575;DHT22;9417;16.484;102.872;2022-08-19T10:38:26;29.30;87.20
18575;DHT22;9417;16.484;102.872;2022-08-19T10:40:34;29.30;87.70
18575;DHT22;9417;16.484;102.872;2022-08-19T10:42:41;29.20;87.70
18575;DHT22;9417;16.484;102.872;2022-08-19T10:44:49;29.20;88.00
18575;DHT22;9417;16.484;102.872;2022-08-19T10:46:58;29.20;88.50
18575;DHT22;9417;16.484;102.872;2022-08-19T10:49:06;29.10;88.80
18575;DHT22;9417;16.484;102.872;2022-08-19T10:51:14;29.00;89.40
18575;DHT22;9417;16.484;102.872;2022-08-19T10:53:38;29.00;89.70
18575;DHT22;9417;16.484;102.872;2022-08-19T10:55:45;29.00;90.10
18575;DHT22;9417;16.484;102.872;2022-08-19T10:58:13;28.90;89.70
18575;DHT22;9417;16.484;102.872;2022-08-19T11:00:21;28.80;90.10
18575;DHT22;9417;16.484;102.872;2022-08-19T11:02:31;28.80;90.30
18575;DHT22;9417;16.484;102.872;2022-08-19T11:04:39;28.70;90.60
18575;DHT22;9417;16.484;102.872;2022-08-19T11:06:50;28.70;90.80
18575;DHT22;9417;16.484;102.872;2022-08-19T11:08:57;28.70;90.90
18575;DHT22;9417;16.484;102.872;2022-08-19T11:11:06;28.70;90.80
18575;DHT22;9417;16.484;102.872;2022-08-19T11:13:13;28.60;90.40
18575;DHT22;9417;16.484;102.872;2022-08-19T11:15:21;28.70;90.50
18575;DHT22;9417;16.484;102.872;2022-08-19T11:17:31;28.70;90.90
18575;DHT22;9417;16.484;102.872;2022-08-19T11:19:38;28.70;91.30
18575;DHT22;9417;16.484;102.872;2022-08-19T11:21:47;28.60;91.60
18575;DHT22;9417;16.484;102.872;2022-08-19T11:24:01;28.50;92.50
18575;DHT22;9417;16.484;102.872;2022-08-19T11:26:09;28.50;93.10
18575;DHT22;9417;16.484;102.872;2022-08-19T11:28:16;28.50;93.50
18575;DHT22;9417;16.484;102.872;2022-08-19T11:30:23;28.40;93.80
18575;DHT22;9417;16.484;102.872;2022-08-19T11:32:33;28.40;93.80
18575;DHT22;9417;16.484;102.872;2022-08-19T11:34:40;28.40;93.60
18575;DHT22;9417;16.484;102.872;2022-08-19T11:36:48;28.40;93.50
18575;DHT22;9417;16.484;102.872;2022-08-19T11:38:55;28.50;93.30
18575;DHT22;9417;16.484;102.872;2022-08-19T11:41:05;28.60;93.20
18575;DHT22;9417;16.484;102.872;2022-08-19T11:43:12;28.60;93.20
18575;DHT22;9417;16.484;102.872;2022-08-19T11:45:19;28.60;93.40
18575;DHT22;9417;16.484;102.872;2022-08-19T11:47:26;28.60;93.40
18575;DHT22;9417;16.484;102.872;2022-08-19T11:49:35;28.50;93.30
18575;DHT22;9417;16.484;102.872;2022-08-19T11:51:43;28.50;93.40
18575;DHT22;9417;16.484;102.872;2022-08-19T11:53:50;28.60;93.70
18575;DHT22;9417;16.484;102.872;2022-08-19T11:55:58;28.60;93.60
18575;DHT22;9417;16.484;102.872;2022-08-19T11:58:05;28.60;93.70
18575;DHT22;9417;16.484;102.872;2022-08-19T12:00:21;28.60;93.40
18575;DHT22;9417;16.484;102.872;2022-08-19T12:02:29;28.60;93.10
18575;DHT22;9417;16.484;102.872;2022-08-19T12:04:38;28.60;93.20
18575;DHT22;9417;16.484;102.872;2022-08-19T12:06:45;28.40;93.30
18575;DHT22;9417;16.484;102.872;2022-08-19T12:08:52;28.40;93.90
18575;DHT22;9417;16.484;102.872;2022-08-19T12:11:00;28.30;94.10
18575;DHT22;9417;16.484;102.872;2022-08-19T12:13:07;28.30;94.10
18575;DHT22;9417;16.484;102.872;2022-08-19T12:15:15;28.30;94.10
18575;DHT22;9417;16.484;102.872;2022-08-19T12:17:22;28.40;94.20
18575;DHT22;9417;16.484;102.872;2022-08-19T12:19:30;28.40;94.20
18575;DHT22;9417;16.484;102.872;2022-08-19T12:21:39;28.40;94.40
18575;DHT22;9417;16.484;102.872;2022-08-19T12:23:47;28.30;94.90
18575;DHT22;9417;16.484;102.872;2022-08-19T12:25:58;28.30;94.90
18575;DHT22;9417;16.484;102.872;2022-08-19T12:28:06;28.40;95.00
18575;DHT22;9417;16.484;102.872;2022-08-19T12:30:14;28.40;95.00
18575;DHT22;9417;16.484;102.872;2022-08-19T12:32:22;28.40;94.70
18575;DHT22;9417;16.484;102.872;2022-08-19T12:34:32;28.40;94.60
18575;DHT22;9417;16.484;102.872;2022-08-19T12:36:41;28.40;94.80
18575;DHT22;9417;16.484;102.872;2022-08-19T12:38:48;28.40;94.70
18575;DHT22;9417;16.484;102.872;2022-08-19T12:40:55;28.40;94.80
18575;DHT22;9417;16.484;102.872;2022-08-19T12:43:03;28.30;94.70
18575;DHT22;9417;16.484;102.872;2022-08-19T12:45:12;28.40;94.70
18575;DHT22;9417;16.484;102.872;2022-08-19T12:47:20;28.40;94.70
18575;DHT22;9417;16.484;102.872;2022-08-19T12:49:28;28.40;94.80
18575;DHT22;9417;16.484;102.872;2022-08-19T12:51:58;28.40;94.70
18575;DHT22;9417;16.484;102.872;2022-08-19T12:54:05;28.40;94.70
18575;DHT22;9417;16.484;102.872;2022-08-19T12:56:12;28.40;94.60
18575;DHT22;9417;16.484;102.872;2022-08-19T12:58:26;28.40;94.60
18575;DHT22;9417;16.484;102.872;2022-08-19T13:00:33;28.40;94.80
18575;DHT22;9417;16.484;102.872;2022-08-19T13:02:42;28.40;95.00
18575;DHT22;9417;16.484;102.872;2022-08-19T13:04:50;28.30;95.20
18575;DHT22;9417;16.484;102.872;2022-08-19T13:06:59;28.30;95.40
18575;DHT22;9417;16.484;102.872;2022-08-19T13:09:06;28.30;95.50
18575;DHT22;9417;16.484;102.872;2022-08-19T13:11:15;28.30;95.50
18575;DHT22;9417;16.484;102.872;2022-08-19T13:13:23;28.40;95.50
18575;DHT22;9417;16.484;102.872;2022-08-19T13:15:34;28.40;95.40
18575;DHT22;9417;16.484;102.872;2022-08-19T13:17:41;28.40;95.40
18575;DHT22;9417;16.484;102.872;2022-08-19T13:19:48;28.50;95.40
18575;DHT22;9417;16.484;102.872;2022-08-19T13:21:57;28.40;95.50
18575;DHT22;9417;16.484;102.872;2022-08-19T13:24:05;28.40;95.40
18575;DHT22;9417;16.484;102.872;2022-08-19T13:26:13;28.40;95.60
18575;DHT22;9417;16.484;102.872;2022-08-19T13:28:20;28.40;95.60
18575;DHT22;9417;16.484;102.872;2022-08-19T13:30:32;28.50;95.70
18575;DHT22;9417;16.484;102.872;2022-08-19T13:32:55;28.40;95.80
18575;DHT22;9417;16.484;102.872;2022-08-19T13:35:18;28.50;95.90
18575;DHT22;9417;16.484;102.872;2022-08-19T13:37:27;28.40;95.80
18575;DHT22;9417;16.484;102.872;2022-08-19T13:39:47;28.40;95.90
18575;DHT22;9417;16.484;102.872;2022-08-19T13:41:54;28.40;96.10
18575;DHT22;9417;16.484;102.872;2022-08-19T13:44:02;28.40;96.10
18575;DHT22;9417;16.484;102.872;2022-08-19T13:46:10;28.40;96.10
18575;DHT22;9417;16.484;102.872;2022-08-19T13:48:18;28.40;96.20
18575;DHT22;9417;16.484;102.872;2022-08-19T13:50:27;28.30;96.10
18575;DHT22;9417;16.484;102.872;2022-08-19T13:52:38;28.30;95.90
18575;DHT22;9417;16.484;102.872;2022-08-19T13:54:45;28.30;95.80
18575;DHT22;9417;16.484;102.872;2022-08-19T13:56:53;28.30;96.10
18575;DHT22;9417;16.484;102.872;2022-08-19T13:59:00;28.20;96.20